createdAt,value
2022-11-29T00:01:46.286Z,3.80
2022-11-29T00:04:13.969Z,3.81
2022-11-29T00:06:41.478Z,3.80
2022-11-29T00:09:12.216Z,3.80
2022-11-29T00:12:00.406Z,3.80
2022-11-29T00:14:29.173Z,3.79
2022-11-29T00:17:01.881Z,3.78
2022-11-29T00:19:29.904Z,3.78
2022-11-29T00:21:57.393Z,3.79
2022-11-29T00:24:24.953Z,3.77
2022-11-29T00:26:53.696Z,3.76
2022-11-29T00:29:21.335Z,3.74
2022-11-29T00:31:48.814Z,3.73
2022-11-29T00:34:16.296Z,3.71
2022-11-29T00:36:43.741Z,3.72
2022-11-29T00:39:12.546Z,3.71
2022-11-29T00:41:40.312Z,3.72
2022-11-29T00:44:10.544Z,3.71
2022-11-29T00:46:40.438Z,3.71
2022-11-29T00:49:07.884Z,3.68
2022-11-29T00:51:35.334Z,3.67
2022-11-29T00:54:02.843Z,3.66
2022-11-29T00:56:30.618Z,3.66
2022-11-29T00:58:58.096Z,3.66
2022-11-29T01:01:26.930Z,3.67
2022-11-29T01:03:54.493Z,3.67
2022-11-29T01:06:21.981Z,3.67
2022-11-29T01:08:50.628Z,3.69
2022-11-29T01:11:20.429Z,3.67
2022-11-29T01:13:48.395Z,3.66
2022-11-29T01:16:16.722Z,3.67
2022-11-29T01:18:45.633Z,3.68
2022-11-29T01:21:15.837Z,3.66
2022-11-29T01:23:45.116Z,3.66
2022-11-29T01:26:15.114Z,3.66
2022-11-29T01:28:43.500Z,3.67
2022-11-29T01:31:12.739Z,3.68
2022-11-29T01:33:40.792Z,3.68
2022-11-29T01:36:11.019Z,3.67
2022-11-29T01:38:38.688Z,3.67
2022-11-29T01:41:08.446Z,3.67
2022-11-29T01:43:55.842Z,3.69
2022-11-29T01:46:23.548Z,3.69
2022-11-29T01:48:53.206Z,3.68
2022-11-29T01:51:22.672Z,3.69
2022-11-29T01:53:50.138Z,3.68
2022-11-29T01:56:17.743Z,3.67
2022-11-29T01:58:46.256Z,3.67
2022-11-29T02:01:17.759Z,3.67
2022-11-29T02:03:45.423Z,3.66
2022-11-29T02:06:13.810Z,3.65
2022-11-29T02:08:43.826Z,3.65
2022-11-29T02:11:40.270Z,3.63
2022-11-29T02:14:23.014Z,3.62
2022-11-29T02:16:58.807Z,3.61
2022-11-29T02:19:46.761Z,3.63
2022-11-29T02:22:20.583Z,3.65
2022-11-29T02:25:05.152Z,3.64
2022-11-29T02:28:10.135Z,3.64
2022-11-29T02:31:05.762Z,3.65
2022-11-29T02:33:58.911Z,3.62
2022-11-29T02:36:43.547Z,3.62
2022-11-29T02:39:49.909Z,3.62
2022-11-29T02:42:56.472Z,3.64
2022-11-29T02:46:04.779Z,3.62
2022-11-29T02:48:54.236Z,3.63
2022-11-29T02:51:28.551Z,3.62
2022-11-29T02:54:05.227Z,3.63
2022-11-29T02:56:38.879Z,3.63
2022-11-29T02:59:14.972Z,3.62
2022-11-29T03:01:53.016Z,3.61
2022-11-29T03:04:32.276Z,3.62
2022-11-29T03:07:05.876Z,3.63
2022-11-29T03:09:40.986Z,3.62
2022-11-29T03:12:17.338Z,3.63
2022-11-29T03:14:55.294Z,3.64
2022-11-29T03:17:32.042Z,3.63
2022-11-29T03:20:22.965Z,3.62
2022-11-29T03:23:09.300Z,3.62
2022-11-29T03:25:40.869Z,3.62
2022-11-29T03:28:15.285Z,3.63
2022-11-29T03:30:49.958Z,3.63
2022-11-29T03:33:25.310Z,3.62
2022-11-29T03:36:01.112Z,3.61
2022-11-29T03:38:33.776Z,3.62
2022-11-29T03:41:06.671Z,3.62
2022-11-29T03:43:43.805Z,3.63
2022-11-29T03:46:16.809Z,3.64
2022-11-29T03:48:49.100Z,3.64
2022-11-29T03:51:22.868Z,3.62
2022-11-29T03:53:55.010Z,3.62
2022-11-29T03:56:27.762Z,3.63
2022-11-29T03:59:04.198Z,3.62
2022-11-29T04:01:56.783Z,3.61
2022-11-29T04:04:50.116Z,3.59
2022-11-29T04:07:34.750Z,3.60
2022-11-29T04:10:17.099Z,3.62
2022-11-29T04:13:03.303Z,3.61
2022-11-29T04:15:54.968Z,3.60
2022-11-29T04:19:01.530Z,3.60
2022-11-29T04:21:38.655Z,3.62
2022-11-29T04:24:28.178Z,3.62
2022-11-29T04:27:19.701Z,3.65
2022-11-29T04:30:04.662Z,3.67
2022-11-29T04:33:13.705Z,3.67
2022-11-29T04:36:02.155Z,3.67
2022-11-29T04:38:44.472Z,3.68
2022-11-29T04:41:29.259Z,3.67
2022-11-29T04:44:12.227Z,3.68
2022-11-29T04:47:04.426Z,3.68
2022-11-29T04:49:47.062Z,3.68
2022-11-29T04:52:42.418Z,3.67
2022-11-29T04:55:27.649Z,3.67
2022-11-29T04:58:05.127Z,3.67
2022-11-29T05:00:40.399Z,3.67
2022-11-29T05:03:15.276Z,3.67
2022-11-29T05:05:52.238Z,3.66
2022-11-29T05:08:30.215Z,3.65
2022-11-29T05:11:06.730Z,3.65
2022-11-29T05:13:44.740Z,3.65
2022-11-29T05:16:33.386Z,3.64
2022-11-29T05:19:21.252Z,3.65
2022-11-29T05:21:56.386Z,3.66
2022-11-29T05:24:39.543Z,3.66
2022-11-29T05:27:16.232Z,3.64
2022-11-29T05:29:55.156Z,3.64
2022-11-29T05:32:28.589Z,3.64
2022-11-29T05:35:17.644Z,3.65
2022-11-29T05:37:49.933Z,3.66
2022-11-29T05:40:40.566Z,3.66
2022-11-29T05:43:22.546Z,3.65
2022-11-29T05:45:58.571Z,3.65
2022-11-29T05:48:33.864Z,3.64
2022-11-29T05:51:14.140Z,3.62
2022-11-29T05:53:49.182Z,3.62
2022-11-29T05:56:24.817Z,3.62
2022-11-29T05:58:59.502Z,3.63
2022-11-29T06:01:31.670Z,3.62
2022-11-29T06:04:07.965Z,3.62
2022-11-29T06:06:45.601Z,3.62
2022-11-29T06:09:19.500Z,3.61
2022-11-29T06:11:51.086Z,3.62
2022-11-29T06:14:36.015Z,3.61
2022-11-29T06:17:37.245Z,3.59
2022-11-29T06:20:25.573Z,3.59
2022-11-29T06:23:08.744Z,3.57
2022-11-29T06:25:51.480Z,3.55
2022-11-29T06:28:33.339Z,3.53
2022-11-29T06:31:06.253Z,3.55
2022-11-29T06:33:43.022Z,3.54
2022-11-29T06:36:19.702Z,3.56
2022-11-29T06:38:47.688Z,3.56
2022-11-29T06:41:19.608Z,3.56
2022-11-29T06:43:47.658Z,3.58
2022-11-29T06:46:25.105Z,3.57
2022-11-29T06:49:03.666Z,3.58
2022-11-29T06:51:40.103Z,3.57
2022-11-29T06:54:20.378Z,3.58
2022-11-29T06:56:56.053Z,3.57
2022-11-29T06:59:38.273Z,3.57
2022-11-29T07:02:21.375Z,3.57
2022-11-29T07:05:11.462Z,3.56
2022-11-29T07:07:40.664Z,3.57
2022-11-29T07:10:15.447Z,3.56
2022-11-29T07:12:44.239Z,3.59
2022-11-29T07:15:16.900Z,3.57
2022-11-29T07:20:58.980Z,3.59
2022-11-29T07:23:35.400Z,3.61
2022-11-29T07:26:18.492Z,3.61
2022-11-29T07:29:02.232Z,3.62
2022-11-29T07:31:39.599Z,3.61
2022-11-29T07:34:17.937Z,3.61
2022-11-29T07:36:56.317Z,3.61
2022-11-29T07:39:37.019Z,3.63
2022-11-29T07:42:13.640Z,3.65
2022-11-29T07:44:54.004Z,3.65
2022-11-29T07:47:21.594Z,3.67
2022-11-29T07:49:49.744Z,3.68
2022-11-29T07:52:18.634Z,3.69
2022-11-29T07:54:46.689Z,3.71
2022-11-29T07:57:14.457Z,3.72
2022-11-29T07:59:42.161Z,3.74
2022-11-29T08:02:12.059Z,3.75
2022-11-29T08:04:45.423Z,3.75
2022-11-29T08:07:13.687Z,3.77
2022-11-29T08:09:43.162Z,3.79
2022-11-29T08:12:15.219Z,3.80
2022-11-29T08:14:43.705Z,3.81
2022-11-29T08:17:11.920Z,3.82
2022-11-29T08:19:39.516Z,3.84
2022-11-29T08:22:08.070Z,3.85
2022-11-29T08:24:35.860Z,3.87
2022-11-29T08:27:06.088Z,3.90
2022-11-29T08:29:34.021Z,3.92
2022-11-29T08:32:01.971Z,3.95
2022-11-29T08:34:30.927Z,3.96
2022-11-29T08:36:59.496Z,3.99
2022-11-29T08:39:28.186Z,4.02
2022-11-29T08:41:56.184Z,4.03
2022-11-29T08:44:25.432Z,4.06
2022-11-29T08:47:10.642Z,4.10
2022-11-29T08:49:59.449Z,4.13
2022-11-29T08:58:32.524Z,4.21
2022-11-29T09:01:34.329Z,4.23
2022-11-29T09:06:50.801Z,4.24
2022-11-29T09:09:20.176Z,4.26
2022-11-29T09:11:57.854Z,4.30
2022-11-29T09:14:29.048Z,4.32
2022-11-29T09:16:59.441Z,4.34
2022-11-29T09:22:15.129Z,4.39
2022-11-29T09:24:43.548Z,4.41
2022-11-29T09:27:13.708Z,4.46
2022-11-29T09:29:41.927Z,4.50
2022-11-29T09:32:09.807Z,4.52
2022-11-29T09:34:39.265Z,4.52
2022-11-29T09:37:06.736Z,4.55
2022-11-29T09:39:34.380Z,4.59
2022-11-29T09:42:24.753Z,4.63
2022-11-29T09:45:01.689Z,4.66
2022-11-29T09:47:44.150Z,4.69
2022-11-29T09:50:26.377Z,4.68
2022-11-29T09:53:07.882Z,4.69
2022-11-29T09:55:47.067Z,4.70
2022-11-29T09:58:20.746Z,4.71
2022-11-29T10:00:51.638Z,4.72
2022-11-29T10:03:25.583Z,4.72
2022-11-29T10:06:00.797Z,4.74
2022-11-29T10:08:41.523Z,4.77
2022-11-29T10:11:22.254Z,4.77
2022-11-29T10:13:54.311Z,4.79
2022-11-29T10:16:30.809Z,4.78
2022-11-29T10:19:15.703Z,4.79
2022-11-29T10:21:57.500Z,4.84
2022-11-29T10:24:28.159Z,4.84
2022-11-29T10:26:56.136Z,4.84
2022-11-29T10:29:24.603Z,4.86
2022-11-29T10:31:56.607Z,4.87
2022-11-29T10:34:27.138Z,4.87
2022-11-29T10:36:59.690Z,4.88
2022-11-29T10:39:35.647Z,4.87
2022-11-29T10:42:04.947Z,4.85
2022-11-29T10:44:34.160Z,4.86
2022-11-29T10:47:10.491Z,4.87
2022-11-29T10:49:40.216Z,4.89
2022-11-29T10:52:19.080Z,4.90
2022-11-29T10:54:48.452Z,4.91
2022-11-29T10:57:18.827Z,4.94
2022-11-29T11:00:01.190Z,4.96
2022-11-29T11:02:29.656Z,4.99
2022-11-29T11:04:57.813Z,5.02
2022-11-29T11:07:31.995Z,5.01
2022-11-29T11:10:01.716Z,5.03
2022-11-29T11:12:40.828Z,5.05
2022-11-29T11:15:28.621Z,5.08
2022-11-29T11:17:58.235Z,5.08
2022-11-29T11:20:29.194Z,5.08
2022-11-29T11:23:01.573Z,5.09
2022-11-29T11:25:31.601Z,5.11
2022-11-29T11:28:13.648Z,5.10
2022-11-29T11:30:41.665Z,5.12
2022-11-29T11:33:19.257Z,5.10
2022-11-29T11:36:02.652Z,5.12
2022-11-29T11:38:33.475Z,5.15
2022-11-29T11:41:09.579Z,5.16
2022-11-29T11:43:37.333Z,5.17
2022-11-29T11:46:07.986Z,5.20
2022-11-29T11:48:36.299Z,5.20
2022-11-29T11:51:04.046Z,5.17
2022-11-29T11:53:36.800Z,5.16
2022-11-29T11:56:08.073Z,5.16
2022-11-29T11:58:40.302Z,5.16
2022-11-29T12:01:16.818Z,5.18
2022-11-29T12:03:55.670Z,5.20
2022-11-29T12:06:42.941Z,5.20
2022-11-29T12:09:20.593Z,5.19
2022-11-29T12:11:55.271Z,5.21
2022-11-29T12:14:30.240Z,5.20
2022-11-29T12:17:06.452Z,5.18
2022-11-29T12:19:41.994Z,5.20
2022-11-29T12:22:17.227Z,5.21
2022-11-29T12:24:55.362Z,5.25
2022-11-29T12:27:23.238Z,5.28
2022-11-29T12:29:50.847Z,5.25
2022-11-29T12:32:44.515Z,5.24
2022-11-29T12:35:40.702Z,5.26
2022-11-29T12:38:21.344Z,5.27
2022-11-29T12:41:02.926Z,5.28
2022-11-29T12:43:41.750Z,5.31
2022-11-29T12:46:15.266Z,5.31
2022-11-29T12:48:54.099Z,5.34
2022-11-29T12:51:31.990Z,5.32
2022-11-29T12:54:24.955Z,5.30
2022-11-29T12:57:04.182Z,5.30
2022-11-29T12:59:59.547Z,5.32
2022-11-29T13:02:59.173Z,5.31
2022-11-29T13:05:41.071Z,5.28
2022-11-29T13:08:24.518Z,5.27
2022-11-29T13:11:06.073Z,5.24
2022-11-29T13:13:40.886Z,5.24
2022-11-29T13:16:32.593Z,5.24
2022-11-29T13:19:06.783Z,5.27
2022-11-29T13:21:41.579Z,5.28
2022-11-29T13:24:13.570Z,5.28
2022-11-29T13:26:45.611Z,5.27
2022-11-29T13:29:17.399Z,5.25
2022-11-29T13:31:46.860Z,5.25
2022-11-29T13:34:19.228Z,5.26
2022-11-29T13:37:01.118Z,5.25
2022-11-29T13:39:39.533Z,5.27
2022-11-29T13:42:13.783Z,5.26
2022-11-29T13:44:49.451Z,5.27
2022-11-29T13:47:19.275Z,5.27
2022-11-29T13:49:56.143Z,5.26
2022-11-29T13:52:37.938Z,5.25
2022-11-29T13:55:23.712Z,5.25
2022-11-29T14:00:52.291Z,5.20
2022-11-29T14:03:28.507Z,5.20
2022-11-29T14:06:10.532Z,5.16
2022-11-29T14:09:16.727Z,5.15
2022-11-29T14:11:34.129Z,5.14
2022-11-29T14:14:06.801Z,5.10
2022-11-29T14:16:40.436Z,5.09
2022-11-29T14:19:24.334Z,5.09
2022-11-29T14:22:31.951Z,5.08
2022-11-29T14:25:49.722Z,5.09
2022-11-29T14:28:33.660Z,5.07
2022-11-29T14:31:04.175Z,5.06
2022-11-29T14:33:52.290Z,5.06
2022-11-29T14:36:27.241Z,5.06
2022-11-29T14:39:27.954Z,5.06
2022-11-29T14:42:05.978Z,5.04
2022-11-29T14:44:35.628Z,5.05
2022-11-29T14:47:08.423Z,5.07
2022-11-29T14:49:47.080Z,5.06
2022-11-29T14:52:24.655Z,5.04
2022-11-29T14:54:56.619Z,5.04
2022-11-29T14:57:53.898Z,5.02
2022-11-29T15:00:23.119Z,5.01
2022-11-29T15:02:54.228Z,5.01
2022-11-29T15:05:30.305Z,5.01
2022-11-29T15:08:08.511Z,4.99
2022-11-29T15:10:40.374Z,4.98
2022-11-29T15:13:13.840Z,4.98
2022-11-29T15:16:15.372Z,4.98
2022-11-29T15:19:21.847Z,4.99
2022-11-29T15:21:59.380Z,4.96
2022-11-29T15:24:28.926Z,4.95
2022-11-29T15:26:57.468Z,4.95
2022-11-29T15:29:25.930Z,4.95
2022-11-29T15:31:57.437Z,4.95
2022-11-29T15:34:32.588Z,4.95
2022-11-29T15:37:02.025Z,4.93
2022-11-29T15:39:31.955Z,4.94
2022-11-29T15:42:04.633Z,4.94
2022-11-29T15:44:33.661Z,4.96
2022-11-29T15:47:26.491Z,4.95
2022-11-29T15:49:55.177Z,4.94
2022-11-29T15:52:30.605Z,4.95
2022-11-29T15:55:01.582Z,4.95
2022-11-29T15:57:34.568Z,4.94
2022-11-29T16:00:04.400Z,4.94
2022-11-29T16:02:35.608Z,4.94
2022-11-29T16:05:11.753Z,4.94
2022-11-29T16:07:41.825Z,4.93
2022-11-29T16:10:14.157Z,4.94
2022-11-29T16:12:55.678Z,4.94
2022-11-29T16:15:31.061Z,4.92
2022-11-29T16:18:04.481Z,4.93
2022-11-29T16:20:32.259Z,4.92
2022-11-29T16:23:14.750Z,4.94
2022-11-29T16:26:01.181Z,4.91
2022-11-29T16:28:33.798Z,4.92
2022-11-29T16:31:01.831Z,4.93
2022-11-29T16:33:29.403Z,4.93
2022-11-29T16:36:08.158Z,4.95
2022-11-29T16:38:37.146Z,4.93
2022-11-29T16:41:06.991Z,4.94
2022-11-29T16:43:53.888Z,4.92
2022-11-29T16:46:42.389Z,4.92
2022-11-29T16:49:33.669Z,4.92
2022-11-29T16:52:01.478Z,4.93
2022-11-29T16:54:33.945Z,4.93
2022-11-29T16:57:05.179Z,4.92
2022-11-29T16:59:33.233Z,4.92
2022-11-29T17:02:00.823Z,4.93
2022-11-29T17:04:28.380Z,4.93
2022-11-29T17:06:57.149Z,4.95
2022-11-29T17:09:26.681Z,4.95
2022-11-29T17:11:56.463Z,4.97
2022-11-29T17:14:24.142Z,4.97
2022-11-29T17:16:52.180Z,4.95
2022-11-29T17:19:23.608Z,4.95
2022-11-29T17:21:51.947Z,4.96
2022-11-29T17:24:21.723Z,4.94
2022-11-29T17:26:49.195Z,4.94
2022-11-29T17:29:18.893Z,4.91
2022-11-29T17:31:50.405Z,4.90
2022-11-29T17:34:18.117Z,4.90
2022-11-29T17:36:46.092Z,4.93
2022-11-29T17:39:15.488Z,4.94
2022-11-29T17:41:43.019Z,4.93
2022-11-29T17:44:10.466Z,4.94
2022-11-29T17:46:39.292Z,4.94
2022-11-29T17:49:08.610Z,4.94
2022-11-29T17:51:53.989Z,4.94
2022-11-29T17:54:22.587Z,4.92
2022-11-29T17:56:50.224Z,4.90
2022-11-29T17:59:17.671Z,4.90
2022-11-29T18:01:47.900Z,4.89
2022-11-29T18:04:15.958Z,4.89
2022-11-29T18:06:43.494Z,4.89
2022-11-29T18:09:12.891Z,4.87
2022-11-29T18:11:47.461Z,4.87
2022-11-29T18:14:18.027Z,4.89
2022-11-29T18:16:46.874Z,4.90
2022-11-29T18:19:16.214Z,4.89
2022-11-29T18:21:44.448Z,4.88
2022-11-29T18:24:12.277Z,4.89
2022-11-29T18:26:40.340Z,4.88
2022-11-29T18:29:08.485Z,4.90
2022-11-29T18:31:38.035Z,4.88
2022-11-29T18:34:10.225Z,4.89
2022-11-29T18:36:39.934Z,4.89
2022-11-29T18:39:09.723Z,4.89
2022-11-29T18:41:38.488Z,4.90
2022-11-29T18:44:08.049Z,4.92
2022-11-29T18:46:37.227Z,4.91
2022-11-29T18:49:06.023Z,4.92
2022-11-29T18:51:36.008Z,4.89
2022-11-29T18:54:04.497Z,4.89
2022-11-29T18:56:34.393Z,4.88
2022-11-29T18:59:04.046Z,4.88
2022-11-29T19:01:33.853Z,4.87
2022-11-29T19:04:02.410Z,4.87
2022-11-29T19:06:38.991Z,4.88
2022-11-29T19:09:13.267Z,4.88
2022-11-29T19:11:40.746Z,4.89
2022-11-29T19:14:11.340Z,4.88
2022-11-29T19:16:41.395Z,4.86
2022-11-29T19:19:09.075Z,4.86
2022-11-29T19:21:36.915Z,4.86
2022-11-29T19:24:07.603Z,4.88
2022-11-29T19:26:36.535Z,4.88
2022-11-29T19:29:04.065Z,4.88
2022-11-29T19:31:31.547Z,4.89
2022-11-29T19:33:59.070Z,4.88
2022-11-29T19:36:28.576Z,4.87
2022-11-29T19:38:56.319Z,4.85
2022-11-29T19:41:27.211Z,4.85
2022-11-29T19:43:56.985Z,4.86
2022-11-29T19:46:26.379Z,4.86
2022-11-29T19:48:54.809Z,4.87
2022-11-29T19:51:23.063Z,4.85
2022-11-29T19:53:53.315Z,4.85
2022-11-29T19:56:21.219Z,4.85
2022-11-29T19:58:49.204Z,4.84
2022-11-29T20:01:20.410Z,4.83
2022-11-29T20:03:47.946Z,4.82
2022-11-29T20:06:16.207Z,4.81
2022-11-29T20:08:45.003Z,4.80
2022-11-29T20:11:15.269Z,4.79
2022-11-29T20:13:45.853Z,4.81
2022-11-29T20:16:15.708Z,4.82
2022-11-29T20:18:50.723Z,4.79
2022-11-29T20:21:20.461Z,4.80
2022-11-29T20:23:48.629Z,4.82
2022-11-29T20:26:19.230Z,4.81
2022-11-29T20:28:47.913Z,4.79
2022-11-29T20:31:17.353Z,4.78
2022-11-29T20:33:47.245Z,4.79
2022-11-29T20:36:28.836Z,4.79
2022-11-29T20:39:01.486Z,4.79
2022-11-29T20:41:38.435Z,4.79
2022-11-29T20:44:06.421Z,4.79
2022-11-29T20:46:34.237Z,4.78
2022-11-29T20:49:06.647Z,4.79
2022-11-29T20:51:41.140Z,4.79
2022-11-29T20:54:10.681Z,4.78
2022-11-29T20:56:38.146Z,4.77
2022-11-29T20:59:05.700Z,4.77
2022-11-29T21:01:34.341Z,4.77
2022-11-29T21:04:03.292Z,4.76
2022-11-29T21:06:30.843Z,4.77
2022-11-29T21:08:58.472Z,4.77
2022-11-29T21:11:26.401Z,4.77
2022-11-29T21:13:54.526Z,4.76
2022-11-29T21:16:28.618Z,4.75
2022-11-29T21:18:59.338Z,4.74
2022-11-29T21:21:33.766Z,4.73
2022-11-29T21:24:06.717Z,4.73
2022-11-29T21:26:41.799Z,4.73
2022-11-29T21:29:16.339Z,4.73
2022-11-29T21:31:44.396Z,4.73
2022-11-29T21:34:12.311Z,4.75
2022-11-29T21:36:41.774Z,4.74
2022-11-29T21:39:13.735Z,4.73
2022-11-29T21:41:41.786Z,4.72
2022-11-29T21:44:09.327Z,4.72
2022-11-29T21:46:37.001Z,4.72
2022-11-29T21:49:05.522Z,4.71
2022-11-29T21:51:33.056Z,4.71
2022-11-29T21:54:02.119Z,4.72
2022-11-29T21:56:29.705Z,4.70
2022-11-29T21:58:57.278Z,4.72
2022-11-29T22:01:27.105Z,4.71
2022-11-29T22:03:55.210Z,4.72
2022-11-29T22:06:24.189Z,4.73
2022-11-29T22:08:51.814Z,4.72
2022-11-29T22:11:30.799Z,4.71
2022-11-29T22:14:14.578Z,4.71
2022-11-29T22:16:46.860Z,4.70
2022-11-29T22:19:15.908Z,4.70
2022-11-29T22:21:45.381Z,4.69
2022-11-29T22:24:14.579Z,4.69
2022-11-29T22:26:44.370Z,4.69
2022-11-29T22:29:14.008Z,4.67
2022-11-29T22:31:42.052Z,4.67
2022-11-29T22:34:10.749Z,4.68
2022-11-29T22:36:39.365Z,4.68
2022-11-29T22:39:08.812Z,4.67
2022-11-29T22:41:38.207Z,4.66
2022-11-29T22:44:07.670Z,4.64
2022-11-29T22:46:40.036Z,4.63
2022-11-29T22:49:08.063Z,4.62
2022-11-29T22:51:37.341Z,4.62
2022-11-29T22:54:07.128Z,4.62
2022-11-29T22:56:36.615Z,4.61
2022-11-29T22:59:04.216Z,4.60
2022-11-29T23:01:34.907Z,4.60
2022-11-29T23:04:04.091Z,4.60
2022-11-29T23:06:33.797Z,4.61
2022-11-29T23:09:05.883Z,4.61
2022-11-29T23:11:33.504Z,4.63
2022-11-29T23:14:01.118Z,4.61
2022-11-29T23:16:30.660Z,4.60
2022-11-29T23:19:00.906Z,4.61
2022-11-29T23:21:30.172Z,4.58
2022-11-29T23:23:59.906Z,4.60
2022-11-29T23:26:29.844Z,4.60
2022-11-29T23:28:57.916Z,4.59
2022-11-29T23:31:25.827Z,4.59
2022-11-29T23:33:53.342Z,4.59
2022-11-29T23:36:22.252Z,4.60
2022-11-29T23:38:49.870Z,4.59
2022-11-29T23:41:17.460Z,4.57
2022-11-29T23:43:45.195Z,4.57
2022-11-29T23:46:15.589Z,4.57
2022-11-29T23:48:43.717Z,4.56
2022-11-29T23:51:11.997Z,4.55
2022-11-29T23:53:41.198Z,4.56
2022-11-29T23:56:11.268Z,4.57
2022-11-29T23:58:38.960Z,4.56
